This is the latest recevied weather packets stored in our database for station/object KG2V. If no packets are shown the sender has not sent any weather packets the latest 1 day(s).
| Time | Temp. | Humidity | Pressure | Rain* | Wind** | Luminosity | Snow |
|---|---|---|---|---|---|---|---|
| 1777986462 | 19.44° C | 64% | 998.4 hPa | 0 mm | 2.68 m/s, 190° | 106 W/m² | - |
| 1777986160 | 18.89° C | 69% | 998.6 hPa | 0 mm | 1.79 m/s, 244° | 109 W/m² | - |
| 1777985856 | 18.89° C | 69% | 998.8 hPa | 0 mm | 0.89 m/s, 178° | 76 W/m² | - |
| 1777985554 | 18.89° C | 69% | 998.5 hPa | 0 mm | 0.89 m/s, 169° | 71 W/m² | - |
| 1777985250 | 18.89° C | 69% | 998.6 hPa | 0 mm | 0.45 m/s, 169° | 73 W/m² | - |
| 1777984947 | 18.89° C | 69% | 998.4 hPa | 0 mm | 1.34 m/s, 202° | 84 W/m² | - |
| 1777984643 | 18.89° C | 69% | 998.5 hPa | 0 mm | 0.89 m/s, 206° | 122 W/m² | - |
| 1777984340 | 18.89° C | 69% | 998.5 hPa | 0 mm | 0.89 m/s, 217° | 115 W/m² | - |
| 1777984036 | 18.89° C | 69% | 998.1 hPa | 0 mm | 1.34 m/s, 214° | 108 W/m² | - |
| 1777983734 | 18.89° C | 69% | 998.3 hPa | 0 mm | 1.34 m/s, 196° | 112 W/m² | - |
| 1777983430 | 18.33° C | 69% | 998.2 hPa | 0 mm | 1.34 m/s, 124° | 112 W/m² | - |
| 1777983127 | 18.33° C | 70% | 998.3 hPa | 0 mm | 0 m/s | 104 W/m² | - |
| 1777982823 | 18.33° C | 70% | 998.1 hPa | 0 mm | 2.68 m/s, 224° | 96 W/m² | - |
| 1777982519 | 18.33° C | 71% | 998.3 hPa | 0 mm | 1.34 m/s, 149° | 95 W/m² | - |
| 1777982212 | 18.33° C | 71% | 998.2 hPa | 0 mm | 0.89 m/s, 214° | 95 W/m² | - |
| 1777981911 | 17.78° C | 71% | 998.1 hPa | 0 mm | 1.79 m/s, 142° | 92 W/m² | - |
| 1777981608 | 17.78° C | 71% | 998.2 hPa | 0 mm | 3.13 m/s, 243° | 79 W/m² | - |
| 1777981304 | 17.78° C | 72% | 997.9 hPa | 0 mm | 0.89 m/s, 171° | 66 W/m² | - |
| 1777981000 | 17.78° C | 72% | 998.2 hPa | 0 mm | 1.34 m/s, 198° | 66 W/m² | - |
| 1777980697 | 17.78° C | 73% | 998.2 hPa | 0 mm | 0 m/s | 75 W/m² | - |
| 1777980393 | 17.22° C | 73% | 998 hPa | 0 mm | 1.34 m/s, 176° | 68 W/m² | - |
| 1777980092 | 17.22° C | 74% | 998.2 hPa | 0 mm | 0.45 m/s, 155° | 53 W/m² | - |
| 1777979791 | 16.67° C | 75% | 998 hPa | 0 mm | 0.89 m/s, 191° | 46 W/m² | - |
| 1777979487 | 16.67° C | 74% | 997.9 hPa | 0 mm | 1.34 m/s, 197° | 41 W/m² | - |
| 1777979184 | 16.67° C | 75% | 998 hPa | 0 mm | 0 m/s | 31 W/m² | - |
* Rain latest hour (hover to see other rain measurements)
** Current wind speed in m/s (hover to see current wind gust speed)